KNKX/NKX METAR and TAF weather

Enter ICAO airport designator
Station Type Date Time Source
KNKX METAR 2022/11/30 16:55 UTC NOAA

KNKX 301655Z 11005KT 10SM OVC029 13/08 A3005 RMK AO2 SLP174 T01280083


Station Type Date Time Source
KNKX Decoded METAR 2022/11/30 16:55 UTC NOAA

MCAS MIRAMAR, CA, United States (KNKX) 32-52N 117-09W 146M
Nov 30, 2022 - 11:55 AM EST / 2022.11.30 1655 UTC
Wind: from the ESE (110 degrees) at 6 MPH (5 KT):0
Visibility: 10 mile(s):0
Sky conditions: overcast
Temperature: 55.0 F (12.8 C)
Dew Point: 46.9 F (8.3 C)
Relative Humidity: 74%
Pressure (altimeter): 30.05 in. Hg (1017 hPa)
ob: KNKX 301655Z 11005KT 10SM OVC029 13/08 A3005 RMK AO2 SLP174 T01280083
cycle: 17

Station Type Date Time Source
KNKX TAF 2022/11/30 15:04 UTC NOAA

TAF KNKX 3015/0115 VRB05KT 9999 OVC025 QNH3001INS
TEMPO 3017/3021 SCT030
FM302130 21008KT 9999 BKN035 QNH2995INS
BECMG 0102/0104 VRB03KT 9999 BKN025 QNH3000INS T16/3020Z T09/0114Z

Example: see airport list